createdAt,value
2017-11-18T00:00:03.647Z,4.03
2017-11-18T00:02:30.586Z,4.10
2017-11-18T00:04:57.317Z,3.90
2017-11-18T00:07:23.346Z,3.90
2017-11-18T00:09:50.685Z,4.10
2017-11-18T00:12:16.669Z,4.30
2017-11-18T00:14:42.668Z,4.10
2017-11-18T00:17:08.674Z,4.40
2017-11-18T00:19:35.391Z,4.28
2017-11-18T00:22:01.383Z,4.50
2017-11-18T00:24:27.507Z,4.50
2017-11-18T00:26:53.497Z,4.80
2017-11-18T00:29:19.503Z,4.15
2017-11-18T00:31:45.514Z,4.50
2017-11-18T00:34:11.512Z,4.28
2017-11-18T00:36:39.318Z,4.70
2017-11-18T00:39:05.334Z,4.47
2017-11-18T00:41:32.078Z,4.40
2017-11-18T00:43:58.803Z,4.80
2017-11-18T00:46:25.555Z,4.90
2017-11-18T00:48:51.542Z,5.07
2017-11-18T00:51:17.551Z,4.70
2017-11-18T00:53:43.536Z,4.80
2017-11-18T00:56:09.527Z,5.00
2017-11-18T00:58:36.258Z,4.78
2017-11-18T01:01:02.251Z,4.93
2017-11-18T01:03:28.241Z,5.10
2017-11-18T01:05:54.238Z,4.55
2017-11-18T01:08:20.965Z,4.10
2017-11-18T01:10:47.698Z,5.10
2017-11-18T01:13:13.723Z,4.32
2017-11-18T01:15:39.702Z,4.60
2017-11-18T01:18:06.101Z,4.70
2017-11-18T01:20:32.091Z,4.37
2017-11-18T01:22:58.082Z,4.62
2017-11-18T01:25:24.067Z,4.90
2017-11-18T01:27:50.045Z,4.60
2017-11-18T01:30:16.032Z,4.80
2017-11-18T01:32:42.007Z,4.90
2017-11-18T01:35:08.037Z,20.60
2017-11-18T01:37:34.001Z,17.35
2017-11-18T01:39:59.990Z,4.80
2017-11-18T01:42:26.712Z,5.28
2017-11-18T01:44:53.446Z,5.30
2017-11-18T01:47:20.291Z,4.80
2017-11-18T01:49:46.270Z,5.05
2017-11-18T01:52:12.243Z,5.20
2017-11-18T01:54:38.999Z,5.47
2017-11-18T01:57:04.974Z,5.17
2017-11-18T01:59:30.954Z,5.15
2017-11-18T02:01:56.987Z,4.60
2017-11-18T02:04:22.966Z,5.32
2017-11-18T02:06:49.690Z,4.87
2017-11-18T02:09:15.665Z,5.60
2017-11-18T02:11:41.623Z,5.00
2017-11-18T02:14:07.609Z,4.43
2017-11-18T02:16:33.595Z,5.25
2017-11-18T02:19:00.301Z,5.30
2017-11-18T02:21:26.258Z,29.87
2017-11-18T02:23:52.275Z,9.00
2017-11-18T02:26:19.004Z,7.60
2017-11-18T02:28:44.989Z,8.00
2017-11-18T02:31:10.976Z,8.30
2017-11-18T02:33:36.970Z,7.57
2017-11-18T02:36:02.970Z,5.78
2017-11-18T02:38:29.342Z,5.63
2017-11-18T02:40:55.310Z,5.53
2017-11-18T02:43:21.292Z,6.30
2017-11-18T02:45:47.275Z,6.10
2017-11-18T02:48:13.471Z,5.90
2017-11-18T02:50:39.641Z,5.50
2017-11-18T02:53:05.610Z,5.65
2017-11-18T02:55:31.593Z,5.77
2017-11-18T02:57:58.338Z,5.47
2017-11-18T03:00:25.050Z,5.40
2017-11-18T03:02:51.022Z,5.70
2017-11-18T03:05:17.027Z,5.70
2017-11-18T03:07:43.018Z,5.50
2017-11-18T03:10:09.003Z,5.75
2017-11-18T03:12:35.018Z,5.90
2017-11-18T03:15:00.982Z,6.10
2017-11-18T03:17:26.961Z,5.70
2017-11-18T03:19:52.957Z,5.60
2017-11-18T03:22:18.932Z,5.35
2017-11-18T03:24:44.911Z,5.43
2017-11-18T03:27:10.898Z,5.43
2017-11-18T03:29:37.048Z,5.62
2017-11-18T03:32:03.038Z,5.57
2017-11-18T03:34:29.044Z,6.03
2017-11-18T03:36:55.035Z,5.75
2017-11-18T03:39:20.993Z,6.20
2017-11-18T03:41:47.006Z,5.43
2017-11-18T03:44:12.978Z,6.30
2017-11-18T03:46:39.682Z,6.18
2017-11-18T03:49:05.697Z,6.10
2017-11-18T03:51:31.674Z,5.22
2017-11-18T03:53:57.647Z,5.93
2017-11-18T03:56:23.651Z,5.50
2017-11-18T03:58:49.639Z,5.87
2017-11-18T04:01:15.611Z,6.00
2017-11-18T04:03:42.475Z,5.80
2017-11-18T04:06:09.213Z,5.80
2017-11-18T04:08:35.199Z,5.60
2017-11-18T04:11:01.387Z,5.65
2017-11-18T04:13:27.394Z,5.70
2017-11-18T04:15:54.112Z,5.97
2017-11-18T04:18:20.872Z,6.22
2017-11-18T04:20:47.602Z,6.40
2017-11-18T04:23:14.324Z,5.60
2017-11-18T04:25:40.305Z,5.87
2017-11-18T04:28:06.293Z,5.50
2017-11-18T04:30:33.011Z,5.57
2017-11-18T04:32:59.043Z,5.53
2017-11-18T04:35:25.773Z,6.18
2017-11-18T04:37:52.042Z,5.10
2017-11-18T04:40:18.019Z,5.03
2017-11-18T04:42:44.019Z,5.50
2017-11-18T04:45:10.010Z,5.57
2017-11-18T04:47:35.986Z,5.60
2017-11-18T04:50:01.949Z,5.68
2017-11-18T04:52:27.968Z,5.10
2017-11-18T04:54:53.966Z,5.60
2017-11-18T04:57:20.677Z,5.50
2017-11-18T04:59:46.672Z,5.43
2017-11-18T05:02:12.655Z,6.10
2017-11-18T05:04:39.374Z,6.40
2017-11-18T05:07:05.365Z,5.68
2017-11-18T05:09:31.338Z,6.15
2017-11-18T05:11:58.046Z,5.53
2017-11-18T05:14:24.029Z,5.93
2017-11-18T05:16:50.082Z,6.13
2017-11-18T05:19:16.058Z,6.12
2017-11-18T05:21:42.049Z,6.15
2017-11-18T05:24:08.819Z,6.35
2017-11-18T05:26:34.795Z,5.78
2017-11-18T05:29:00.799Z,6.60
2017-11-18T05:31:26.794Z,6.40
2017-11-18T05:33:52.770Z,5.62
2017-11-18T05:36:18.737Z,6.07
2017-11-18T05:38:44.925Z,5.83
2017-11-18T05:41:11.642Z,6.20
2017-11-18T05:43:37.613Z,6.22
2017-11-18T05:46:03.918Z,6.50
2017-11-18T05:48:30.631Z,6.32
2017-11-18T05:50:56.606Z,6.53
2017-11-18T05:53:23.526Z,6.35
2017-11-18T05:55:50.245Z,7.50
2017-11-18T05:58:16.231Z,6.72
2017-11-18T06:00:42.212Z,6.27
2017-11-18T06:03:08.182Z,6.80
2017-11-18T06:05:34.175Z,6.87
2017-11-18T06:08:00.141Z,6.80
2017-11-18T06:10:26.138Z,6.37
2017-11-18T06:12:52.190Z,6.97
2017-11-18T06:15:18.162Z,7.03
2017-11-18T06:17:44.125Z,7.20
2017-11-18T06:20:10.118Z,6.87
2017-11-18T06:22:36.098Z,6.93
2017-11-18T06:25:02.822Z,7.40
2017-11-18T06:27:28.792Z,6.33
2017-11-18T06:29:54.759Z,7.80
2017-11-18T06:32:20.719Z,7.45
2017-11-18T06:34:46.719Z,7.32
2017-11-18T06:37:13.430Z,8.15
2017-11-18T06:39:39.406Z,8.25
2017-11-18T06:42:05.408Z,7.87
2017-11-18T06:44:32.102Z,7.00
2017-11-18T06:46:58.077Z,7.20
2017-11-18T06:49:24.079Z,7.18
2017-11-18T06:51:50.970Z,7.75
2017-11-18T06:54:16.926Z,7.90
2017-11-18T06:56:42.915Z,7.45
2017-11-18T06:59:08.890Z,7.30
2017-11-18T07:01:35.618Z,7.80
2017-11-18T07:04:02.325Z,7.50
2017-11-18T07:06:28.299Z,7.40
2017-11-18T07:08:54.613Z,7.72
2017-11-18T07:11:21.330Z,8.05
2017-11-18T07:13:47.302Z,8.10
2017-11-18T07:16:13.291Z,7.70
2017-11-18T07:18:40.002Z,8.05
2017-11-18T07:21:05.966Z,7.62
2017-11-18T07:23:32.682Z,8.00
2017-11-18T07:25:58.664Z,7.45
2017-11-18T07:28:24.635Z,7.80
2017-11-18T07:30:50.633Z,8.20
2017-11-18T07:33:16.595Z,7.90
2017-11-18T07:35:43.298Z,7.40
2017-11-18T07:38:09.296Z,7.60
2017-11-18T07:40:35.250Z,6.60
2017-11-18T07:43:01.214Z,7.15
2017-11-18T07:45:27.205Z,6.90
2017-11-18T07:47:53.926Z,7.75
2017-11-18T07:50:19.895Z,7.40
2017-11-18T07:52:46.531Z,7.10
2017-11-18T07:55:12.501Z,7.00
2017-11-18T07:57:38.479Z,6.85
2017-11-18T08:00:04.489Z,6.70
2017-11-18T08:02:31.194Z,7.40
2017-11-18T08:04:57.918Z,7.23
2017-11-18T08:07:23.895Z,6.80
2017-11-18T08:09:49.866Z,6.90
2017-11-18T08:12:15.846Z,7.00
2017-11-18T08:14:41.857Z,7.07
2017-11-18T08:17:07.830Z,6.75
2017-11-18T08:19:33.803Z,6.10
2017-11-18T08:21:59.996Z,6.75
2017-11-18T08:24:26.714Z,6.07
2017-11-18T08:26:52.677Z,6.40
2017-11-18T08:29:18.980Z,6.43
2017-11-18T08:31:44.938Z,6.20
2017-11-18T08:34:10.902Z,6.33
2017-11-18T08:36:41.882Z,5.80
2017-11-18T08:39:07.854Z,6.03
2017-11-18T08:41:33.857Z,5.70
2017-11-18T08:43:59.833Z,5.35
2017-11-18T08:46:26.538Z,5.50
2017-11-18T08:48:52.543Z,5.70
2017-11-18T08:51:18.514Z,5.40
2017-11-18T08:53:45.230Z,5.62
2017-11-18T08:56:11.469Z,5.50
2017-11-18T08:58:37.430Z,5.40
2017-11-18T09:01:03.429Z,5.57
2017-11-18T09:03:30.184Z,5.60
2017-11-18T09:05:56.158Z,5.80
2017-11-18T09:08:22.170Z,5.30
2017-11-18T09:10:48.176Z,5.12
2017-11-18T09:13:14.131Z,5.13
2017-11-18T09:15:40.127Z,5.22
2017-11-18T09:18:06.118Z,5.40
2017-11-18T09:20:32.112Z,5.12
2017-11-18T09:22:58.823Z,5.50
2017-11-18T09:25:24.819Z,5.43
2017-11-18T09:27:50.796Z,4.80
2017-11-18T09:30:17.536Z,4.60
2017-11-18T09:32:44.285Z,4.90
2017-11-18T09:35:11.022Z,5.30
2017-11-18T09:37:37.026Z,5.10
2017-11-18T09:40:03.774Z,4.97
2017-11-18T09:42:30.497Z,4.28
2017-11-18T09:44:57.970Z,5.15
2017-11-18T09:47:25.017Z,5.40
2017-11-18T09:49:51.721Z,5.50
2017-11-18T09:52:17.704Z,5.20
2017-11-18T09:54:43.709Z,5.50
2017-11-18T09:57:10.426Z,5.50
2017-11-18T09:59:36.796Z,5.53
2017-11-18T10:02:02.826Z,5.70
2017-11-18T10:04:28.802Z,5.10
2017-11-18T10:06:54.770Z,5.20
2017-11-18T10:09:20.771Z,5.12
2017-11-18T10:11:47.503Z,4.90
2017-11-18T10:14:14.202Z,5.10
2017-11-18T10:16:40.158Z,4.78
2017-11-18T10:19:06.877Z,5.20
2017-11-18T10:21:33.016Z,5.00
2017-11-18T10:23:59.734Z,4.55
2017-11-18T10:26:25.716Z,4.50
2017-11-18T10:28:51.735Z,5.20
2017-11-18T10:31:17.721Z,4.72
2017-11-18T10:33:44.450Z,4.87
2017-11-18T10:36:10.802Z,4.60
2017-11-18T10:38:37.523Z,5.10
2017-11-18T10:41:04.253Z,5.40
2017-11-18T10:43:30.226Z,4.65
2017-11-18T10:45:56.202Z,4.80
2017-11-18T10:48:22.215Z,4.82
2017-11-18T10:50:48.590Z,4.63
2017-11-18T10:53:14.612Z,4.77
2017-11-18T10:55:40.667Z,5.20
2017-11-18T10:58:06.666Z,5.00
2017-11-18T11:00:32.638Z,4.50
2017-11-18T11:02:58.654Z,4.62
2017-11-18T11:05:24.683Z,4.20
2017-11-18T11:07:50.662Z,4.60
2017-11-18T11:10:16.646Z,5.05
2017-11-18T11:12:43.426Z,4.90
2017-11-18T11:15:09.403Z,4.50
2017-11-18T11:17:36.130Z,5.10
2017-11-18T11:20:02.107Z,5.53
2017-11-18T11:22:28.109Z,4.53
2017-11-18T11:24:54.099Z,2.20
2017-11-18T11:27:20.097Z,1.70
2017-11-18T11:29:46.085Z,1.40
2017-11-18T11:32:12.047Z,1.20
2017-11-18T11:34:38.058Z,1.20
2017-11-18T11:37:04.026Z,1.30
2017-11-18T11:39:30.753Z,1.10
2017-11-18T11:41:57.521Z,1.00
2017-11-18T11:44:23.523Z,0.90
2017-11-18T11:46:50.250Z,1.03
2017-11-18T11:49:17.918Z,0.90
2017-11-18T11:51:44.643Z,1.00
2017-11-18T11:54:10.653Z,1.10
2017-11-18T11:56:36.996Z,1.50
2017-11-18T11:59:02.963Z,1.60
2017-11-18T12:01:28.969Z,1.00
2017-11-18T12:03:55.274Z,1.08
2017-11-18T12:06:21.995Z,1.20
2017-11-18T12:08:47.955Z,1.20
2017-11-18T12:11:15.069Z,1.23
2017-11-18T12:13:41.051Z,1.20
2017-11-18T12:16:07.054Z,1.40
2017-11-18T12:18:33.077Z,1.20
2017-11-18T12:20:59.062Z,1.30
2017-11-18T12:23:25.791Z,1.50
2017-11-18T12:25:52.152Z,1.30
2017-11-18T12:28:18.874Z,1.40
2017-11-18T12:30:44.835Z,1.30
2017-11-18T12:33:10.871Z,1.30
2017-11-18T12:35:36.856Z,1.30
2017-11-18T12:38:03.593Z,1.40
2017-11-18T12:40:30.314Z,1.30
2017-11-18T12:42:57.073Z,1.20
2017-11-18T12:45:23.791Z,1.37
2017-11-18T12:47:49.802Z,1.80
2017-11-18T12:50:15.802Z,1.30
2017-11-18T12:52:41.779Z,1.45
2017-11-18T12:55:08.502Z,1.45
2017-11-18T12:57:35.227Z,1.40
2017-11-18T13:00:01.204Z,1.40
2017-11-18T13:02:27.482Z,1.50
2017-11-18T13:04:54.234Z,1.40
2017-11-18T13:07:20.935Z,1.70
2017-11-18T13:09:46.932Z,1.40
2017-11-18T13:12:12.900Z,1.50
2017-11-18T13:14:38.860Z,1.47
2017-11-18T13:17:04.834Z,1.62
2017-11-18T13:19:30.810Z,1.52
2017-11-18T13:21:56.798Z,1.90
2017-11-18T13:24:23.544Z,1.80
2017-11-18T13:26:50.296Z,18.83
2017-11-18T13:29:16.304Z,33.20
2017-11-18T13:31:43.018Z,20.10
2017-11-18T13:34:08.986Z,2.10
2017-11-18T13:36:35.214Z,1.90
2017-11-18T13:39:01.246Z,2.25
2017-11-18T13:41:27.211Z,1.90
2017-11-18T13:43:53.198Z,2.05
2017-11-18T13:46:19.149Z,1.90
2017-11-18T13:48:45.131Z,2.20
2017-11-18T13:51:11.319Z,1.95
2017-11-18T13:53:38.035Z,2.17
2017-11-18T13:56:10.942Z,1.80
2017-11-18T13:58:37.708Z,1.80
2017-11-18T14:01:04.115Z,1.85
2017-11-18T14:03:30.838Z,2.10
2017-11-18T14:06:04.706Z,1.80
2017-11-18T14:08:30.673Z,1.80
2017-11-18T14:10:57.407Z,2.00
2017-11-18T14:13:23.399Z,2.00
2017-11-18T14:15:49.375Z,2.20
2017-11-18T14:18:15.342Z,2.00
2017-11-18T14:20:41.334Z,2.10
2017-11-18T14:23:07.350Z,1.80
2017-11-18T14:25:33.328Z,2.00
2017-11-18T14:28:00.382Z,1.77
2017-11-18T14:30:26.341Z,2.60
2017-11-18T14:32:52.341Z,2.10
2017-11-18T14:35:19.894Z,2.30
2017-11-18T14:37:46.614Z,2.30
2017-11-18T14:40:12.582Z,2.40
2017-11-18T14:42:39.516Z,2.50
2017-11-18T14:45:05.499Z,2.60
2017-11-18T14:47:31.478Z,2.20
2017-11-18T14:49:57.466Z,2.35
2017-11-18T14:52:24.206Z,2.30
2017-11-18T14:54:50.957Z,2.60
2017-11-18T14:57:17.731Z,2.40
2017-11-18T14:59:43.702Z,2.25
2017-11-18T15:02:10.439Z,2.50
2017-11-18T15:04:37.439Z,2.60
2017-11-18T15:07:03.436Z,2.35
2017-11-18T15:09:29.430Z,2.65
2017-11-18T15:11:56.185Z,3.20
2017-11-18T15:14:27.187Z,2.62
2017-11-18T15:16:59.406Z,2.72
2017-11-18T15:19:31.535Z,2.40
2017-11-18T15:25:06.486Z,3.00
2017-11-18T15:27:38.530Z,3.20
2017-11-18T15:30:20.246Z,3.03
2017-11-18T15:32:49.986Z,23.98
2017-11-18T15:35:16.090Z,36.25
2017-11-18T15:37:46.855Z,10.50
2017-11-18T15:40:12.863Z,3.40
2017-11-18T15:42:39.059Z,3.00
2017-11-18T15:45:07.673Z,3.20
2017-11-18T15:47:39.844Z,3.50
2017-11-18T15:53:15.570Z,3.10
2017-11-18T15:55:47.584Z,6.90
2017-11-18T15:58:13.571Z,5.90
2017-11-18T16:03:49.403Z,4.00
2017-11-18T16:09:18.167Z,3.47
2017-11-18T16:11:44.206Z,3.58
2017-11-18T16:14:10.212Z,5.00
2017-11-18T16:16:36.189Z,3.80
2017-11-18T16:19:02.186Z,4.00
2017-11-18T16:21:28.927Z,3.70
2017-11-18T16:23:54.910Z,3.07
2017-11-18T16:26:20.874Z,2.87
2017-11-18T16:28:46.870Z,2.60
2017-11-18T16:31:12.834Z,2.70
2017-11-18T16:33:38.811Z,3.40
2017-11-18T16:36:04.786Z,4.20
2017-11-18T16:38:30.767Z,2.85
2017-11-18T16:40:56.737Z,2.60
2017-11-18T16:43:23.790Z,3.12
2017-11-18T16:45:50.506Z,2.97
2017-11-18T16:48:16.498Z,3.28
2017-11-18T16:50:42.475Z,4.07
2017-11-18T16:53:08.465Z,3.30
2017-11-18T16:55:34.491Z,3.40
2017-11-18T16:58:00.715Z,3.40
2017-11-18T17:00:26.682Z,3.75
2017-11-18T17:02:52.654Z,3.35
2017-11-18T17:05:18.665Z,3.60
2017-11-18T17:07:44.645Z,3.78
2017-11-18T17:10:10.627Z,3.80
2017-11-18T17:12:36.987Z,3.83
2017-11-18T17:15:03.720Z,3.92
2017-11-18T17:17:30.439Z,4.50
2017-11-18T17:19:56.773Z,4.40
2017-11-18T17:22:22.750Z,4.40
2017-11-18T17:24:48.738Z,3.90
2017-11-18T17:27:14.731Z,3.45
2017-11-18T17:29:40.706Z,4.00
2017-11-18T17:32:06.682Z,4.20
2017-11-18T17:34:32.677Z,4.00
2017-11-18T17:36:58.667Z,4.07
2017-11-18T17:39:24.664Z,4.05
2017-11-18T17:41:51.395Z,3.95
2017-11-18T17:44:18.140Z,4.57
2017-11-18T17:46:44.878Z,5.40
2017-11-18T17:49:11.598Z,4.72
2017-11-18T17:51:37.936Z,4.60
2017-11-18T17:54:04.675Z,5.00
2017-11-18T17:56:31.412Z,4.68
2017-11-18T17:58:58.585Z,4.50
2017-11-18T18:01:24.562Z,4.17
2017-11-18T18:03:50.562Z,4.50
2017-11-18T18:06:16.549Z,4.80
2017-11-18T18:08:43.610Z,4.78
2017-11-18T18:11:09.612Z,4.85
2017-11-18T18:13:36.357Z,4.47
2017-11-18T18:16:02.376Z,4.10
2017-11-18T18:18:29.102Z,4.50
2017-11-18T18:20:55.871Z,4.57
2017-11-18T18:23:21.854Z,4.15
2017-11-18T18:25:47.847Z,4.25
2017-11-18T18:28:13.834Z,4.57
2017-11-18T18:30:40.141Z,4.78
2017-11-18T18:33:06.900Z,4.70
2017-11-18T18:35:32.895Z,5.00
2017-11-18T18:37:59.675Z,5.57
2017-11-18T18:40:25.738Z,4.50
2017-11-18T18:42:51.761Z,4.32
2017-11-18T18:45:17.789Z,4.70
2017-11-18T18:47:43.769Z,3.80
2017-11-18T18:50:09.791Z,4.87
2017-11-18T18:52:35.783Z,4.37
2017-11-18T18:55:02.513Z,4.28
2017-11-18T18:57:29.279Z,3.60
2017-11-18T18:59:55.254Z,4.60
2017-11-18T19:02:21.289Z,4.70
2017-11-18T19:04:48.031Z,4.00
2017-11-18T19:07:14.743Z,4.40
2017-11-18T19:09:40.722Z,3.80
2017-11-18T19:12:06.933Z,4.37
2017-11-18T19:14:33.659Z,4.50
2017-11-18T19:17:00.383Z,4.20
2017-11-18T19:19:26.381Z,4.62
2017-11-18T19:21:52.399Z,4.20
2017-11-18T19:24:18.413Z,4.15
2017-11-18T19:26:44.732Z,4.15
2017-11-18T19:29:10.803Z,3.90
2017-11-18T19:31:36.791Z,4.15
2017-11-18T19:34:02.762Z,4.15
2017-11-18T19:36:29.525Z,3.42
2017-11-18T19:38:55.832Z,4.00
2017-11-18T19:41:22.572Z,4.30
2017-11-18T19:43:49.297Z,3.90
2017-11-18T19:46:15.392Z,4.50
2017-11-18T19:48:41.548Z,3.90
2017-11-18T19:51:07.558Z,4.45
2017-11-18T19:53:34.628Z,4.18
2017-11-18T19:56:01.371Z,4.78
2017-11-18T19:58:28.110Z,4.50
2017-11-18T20:00:54.852Z,4.32
2017-11-18T20:03:21.713Z,3.72
2017-11-18T20:05:47.714Z,4.40
2017-11-18T20:08:14.434Z,3.50
2017-11-18T20:10:40.591Z,4.28
2017-11-18T20:13:06.576Z,3.67
2017-11-18T20:15:32.599Z,3.30
2017-11-18T20:17:58.590Z,3.58
2017-11-18T20:20:24.595Z,2.92
2017-11-18T20:22:50.686Z,2.70
2017-11-18T20:25:17.429Z,3.30
2017-11-18T20:27:44.154Z,2.70
2017-11-18T20:30:10.924Z,2.62
2017-11-18T20:32:36.947Z,2.90
2017-11-18T20:35:02.942Z,2.60
2017-11-18T20:37:29.800Z,2.20
2017-11-18T20:39:55.786Z,2.70
2017-11-18T20:42:21.764Z,3.10
2017-11-18T20:44:47.756Z,2.90
2017-11-18T20:47:14.519Z,3.35
2017-11-18T20:49:40.500Z,3.20
2017-11-18T20:52:07.322Z,3.40
2017-11-18T20:54:33.307Z,3.10
2017-11-18T20:56:59.328Z,3.10
2017-11-18T20:59:25.627Z,3.60
2017-11-18T21:01:52.360Z,3.30
2017-11-18T21:04:19.135Z,3.28
2017-11-18T21:06:45.118Z,3.90
2017-11-18T21:09:11.860Z,3.00
2017-11-18T21:11:37.851Z,3.17
2017-11-18T21:14:03.859Z,3.25
2017-11-18T21:16:30.366Z,3.83
2017-11-18T21:18:56.346Z,3.50
2017-11-18T21:21:22.485Z,3.28
2017-11-18T21:23:49.245Z,3.22
2017-11-18T21:26:15.979Z,2.90
2017-11-18T21:28:42.686Z,2.80
2017-11-18T21:31:08.994Z,2.80
2017-11-18T21:33:34.981Z,2.80
2017-11-18T21:36:00.954Z,2.97
2017-11-18T21:38:26.983Z,2.70
2017-11-18T21:40:52.950Z,2.45
2017-11-18T21:43:18.926Z,2.75
2017-11-18T21:45:44.959Z,2.00
2017-11-18T21:48:11.685Z,1.87
2017-11-18T21:50:37.675Z,2.30
2017-11-18T21:53:03.678Z,2.17
2017-11-18T21:55:29.658Z,2.62
2017-11-18T21:57:55.932Z,2.20
2017-11-18T22:00:21.902Z,2.62
2017-11-18T22:02:48.643Z,3.15
2017-11-18T22:05:14.681Z,2.50
2017-11-18T22:07:41.414Z,2.60
2017-11-18T22:10:07.390Z,3.07
2017-11-18T22:12:33.569Z,2.37
2017-11-18T22:15:00.348Z,2.42
2017-11-18T22:17:26.357Z,2.58
2017-11-18T22:19:52.555Z,2.70
2017-11-18T22:22:19.290Z,3.08
2017-11-18T22:24:46.048Z,2.40
2017-11-18T22:27:12.803Z,2.60
2017-11-18T22:29:38.790Z,2.90
2017-11-18T22:32:04.758Z,3.03
2017-11-18T22:34:31.045Z,2.60
2017-11-18T22:36:57.805Z,3.50
2017-11-18T22:39:23.837Z,2.90
2017-11-18T22:41:56.755Z,3.00
2017-11-18T22:44:22.747Z,3.20
2017-11-18T22:46:48.764Z,3.50
2017-11-18T22:49:14.748Z,2.92
2017-11-18T22:51:41.478Z,2.90
2017-11-18T22:54:07.786Z,4.12
2017-11-18T22:56:33.780Z,2.83
2017-11-18T22:58:59.771Z,3.15
2017-11-18T23:01:26.547Z,3.30
2017-11-18T23:03:52.541Z,3.12
2017-11-18T23:06:19.264Z,3.10
2017-11-18T23:08:46.057Z,3.33
2017-11-18T23:11:12.035Z,3.20
2017-11-18T23:13:38.787Z,3.45
2017-11-18T23:16:05.002Z,3.63
2017-11-18T23:18:31.729Z,3.80
2017-11-18T23:20:57.715Z,3.05
2017-11-18T23:23:23.690Z,3.47
2017-11-18T23:25:50.399Z,3.20
2017-11-18T23:28:16.422Z,2.80
2017-11-18T23:30:42.434Z,3.03
2017-11-18T23:33:08.420Z,2.45
2017-11-18T23:35:34.445Z,2.80
2017-11-18T23:38:00.419Z,3.10
2017-11-18T23:40:26.469Z,2.90
2017-11-18T23:42:52.497Z,3.20
2017-11-18T23:45:18.472Z,3.87
2017-11-18T23:47:44.448Z,4.20
2017-11-18T23:50:10.474Z,3.90
2017-11-18T23:52:36.466Z,4.30
2017-11-18T23:55:03.193Z,4.18
2017-11-18T23:57:29.922Z,4.25
2017-11-18T23:59:55.897Z,4.10
